Zaliv Vostok — A8RM6 — position and weather

sailwx.info

Track history (hours):
 
Tides and Currents Weather Stations Pressure Air Temp Water Temp Dewpoint Dewpoint Depression Visibility Wind Speed Wind Dir Waves Ship Positions

Zaliv Vostok

Last reported at 2014-Dec-20 08:24 UTC. Time now 2014-Dec-21 01:09 UTC.
Position N 01°18' E 104°07'.

Length 243 m; draft 10.1 m.

Type: Tanker. MMSI: 636014127.

Date/timePositionNaut miles runAvg speedWind from/ knotsBaromVisibWave heightAir tempDewpointWater temp
2014-Dec-20 08:24N 01°18' E 104°07'3 0.3
2014-Dec-19 23:07N 01°16' E 104°07'5 8.6
2014-Dec-19 22:33N 01°15' E 104°02'20 3.3
2014-Dec-19 16:27N 01°17' E 103°42'0 0.0
2014-Dec-18 18:16N 01°17' E 103°42'1 0.8
2014-Dec-18 17:29N 01°18' E 103°41'9 4.8
2014-Dec-18 15:33N 01°09' E 103°46'1111.2
2014-Dec-18 14:31N 01°16' E 103°55'1 0.1
2014-Dec-18 10:30N 01°15' E 103°55'0 0.0
2014-Dec-18 08:11N 01°15' E 103°55'0 0.0
2014-Dec-18 07:05N 01°15' E 103°55'0 0.0
2014-Dec-18 06:32N 01°15' E 103°55'0 0.0
2014-Dec-18 01:26N 01°15' E 103°55'0 0.0
2014-Dec-17 22:31N 01°15' E 103°55'0 0.0
2014-Dec-17 00:05N 01°15' E 103°55'3 4.2
2014-Dec-16 23:26N 01°13' E 103°53'6 7.2
2014-Dec-16 22:32N 01°14' E 103°47'0 0.2
2014-Dec-16 21:28N 01°14' E 103°46'0 0.0
2014-Dec-15 18:23N 01°14' E 103°46'0 0.6
2014-Dec-15 17:32N 01°14' E 103°46'5 5.2
2014-Dec-15 16:31N 01°12' E 103°41'  
Track history (hours):
 
Tides and Currents Weather Stations Pressure Air Temp Water Temp Dewpoint Dewpoint Depression Visibility Wind Speed Wind Dir Waves Ship Positions

Zaliv Vostok

Last reported at 2014-Dec-20 08:24 UTC. Time now 2014-Dec-21 01:09 UTC.
Position N 01°18' E 104°07'.

Length 243 m; draft 10.1 m.

Type: Tanker. MMSI: 636014127.

Date/timePositionNaut miles runAvg speedWind from/ knotsBaromVisibWave heightAir tempDewpointWater temp
2014-Dec-20 08:24N 01°18' E 104°07'3 0.3
2014-Dec-19 23:07N 01°16' E 104°07'5 8.6
2014-Dec-19 22:33N 01°15' E 104°02'20 3.3
2014-Dec-19 16:27N 01°17' E 103°42'0 0.0
2014-Dec-18 18:16N 01°17' E 103°42'1 0.8
2014-Dec-18 17:29N 01°18' E 103°41'9 4.8
2014-Dec-18 15:33N 01°09' E 103°46'1111.2
2014-Dec-18 14:31N 01°16' E 103°55'1 0.1
2014-Dec-18 10:30N 01°15' E 103°55'0 0.0
2014-Dec-18 08:11N 01°15' E 103°55'0 0.0
2014-Dec-18 07:05N 01°15' E 103°55'0 0.0
2014-Dec-18 06:32N 01°15' E 103°55'0 0.0
2014-Dec-18 01:26N 01°15' E 103°55'0 0.0
2014-Dec-17 22:31N 01°15' E 103°55'0 0.0
2014-Dec-17 00:05N 01°15' E 103°55'3 4.2
2014-Dec-16 23:26N 01°13' E 103°53'6 7.2
2014-Dec-16 22:32N 01°14' E 103°47'0 0.2
2014-Dec-16 21:28N 01°14' E 103°46'0 0.0
2014-Dec-15 18:23N 01°14' E 103°46'0 0.6
2014-Dec-15 17:32N 01°14' E 103°46'5 5.2
2014-Dec-15 16:31N 01°12' E 103°41'  

Dump ship's entire track history